createdAt,value
2023-03-26T00:00:33.020Z,11.52
2023-03-26T00:02:39.986Z,11.53
2023-03-26T00:04:46.774Z,11.52
2023-03-26T00:06:51.695Z,11.49
2023-03-26T00:08:58.075Z,11.51
2023-03-26T00:11:03.000Z,11.51
2023-03-26T00:13:08.576Z,11.48
2023-03-26T00:15:14.224Z,11.49
2023-03-26T00:17:22.280Z,11.46
2023-03-26T00:19:28.129Z,11.45
2023-03-26T00:21:34.396Z,11.47
2023-03-26T00:23:39.768Z,11.46
2023-03-26T00:25:46.468Z,11.43
2023-03-26T00:27:52.831Z,11.43
2023-03-26T00:29:57.880Z,11.44
2023-03-26T00:32:04.060Z,11.43
2023-03-26T00:34:11.728Z,11.40
2023-03-26T00:36:20.232Z,11.40
2023-03-26T00:38:26.277Z,11.39
2023-03-26T00:40:32.304Z,11.41
2023-03-26T00:42:37.758Z,11.39
2023-03-26T00:44:42.470Z,11.39
2023-03-26T00:46:47.329Z,11.40
2023-03-26T00:48:52.223Z,11.41
2023-03-26T00:51:00.298Z,11.40
2023-03-26T00:53:05.464Z,11.38
2023-03-26T00:55:11.265Z,11.37
2023-03-26T00:57:28.971Z,11.37
2023-03-26T00:59:40.034Z,11.35
2023-03-26T01:01:44.982Z,11.34
2023-03-26T01:04:08.354Z,11.34
2023-03-26T01:06:28.021Z,11.29
2023-03-26T01:08:34.998Z,11.29
2023-03-26T01:10:41.101Z,11.30
2023-03-26T01:12:46.181Z,11.29
2023-03-26T01:14:52.261Z,11.29
2023-03-26T01:16:59.093Z,11.26
2023-03-26T01:19:04.074Z,11.27
2023-03-26T01:21:09.905Z,11.24
2023-03-26T01:23:21.875Z,11.23
2023-03-26T01:25:35.623Z,11.21
2023-03-26T01:27:43.459Z,11.17
2023-03-26T01:29:54.330Z,11.16
2023-03-26T01:32:09.622Z,11.17
2023-03-26T01:34:23.766Z,11.16
2023-03-26T01:36:35.358Z,11.16
2023-03-26T01:38:48.436Z,11.16
2023-03-26T01:41:01.253Z,11.11
2023-03-26T01:43:14.294Z,11.10
2023-03-26T01:45:24.117Z,11.10
2023-03-26T01:47:29.902Z,11.11
2023-03-26T01:49:35.350Z,11.12
2023-03-26T01:51:40.326Z,11.10
2023-03-26T01:53:47.860Z,11.09
2023-03-26T01:56:04.567Z,11.05
2023-03-26T01:58:17.172Z,11.03
2023-03-26T02:00:27.680Z,11.06
2023-03-26T02:02:41.697Z,11.07
2023-03-26T02:04:54.131Z,11.11
2023-03-26T02:07:06.357Z,11.11
2023-03-26T02:09:15.646Z,11.12
2023-03-26T02:11:23.382Z,11.15
2023-03-26T02:13:29.209Z,11.15
2023-03-26T02:15:34.047Z,11.14
2023-03-26T02:17:40.605Z,11.12
2023-03-26T02:19:45.832Z,11.09
2023-03-26T02:21:52.346Z,11.06
2023-03-26T02:24:03.319Z,11.02
2023-03-26T02:26:12.352Z,10.97
2023-03-26T02:28:32.569Z,10.95
2023-03-26T02:30:37.994Z,10.92
2023-03-26T02:32:44.059Z,10.88
2023-03-26T02:34:51.537Z,10.82
2023-03-26T02:36:57.380Z,10.79
2023-03-26T02:39:03.223Z,10.77
2023-03-26T02:41:11.553Z,10.73
2023-03-26T02:43:32.644Z,10.71
2023-03-26T02:45:38.029Z,10.68
2023-03-26T02:48:03.824Z,10.67
2023-03-26T02:50:24.325Z,10.64
2023-03-26T02:52:57.980Z,10.62
2023-03-26T02:55:04.559Z,10.61
2023-03-26T02:57:10.569Z,10.62
2023-03-26T02:59:24.207Z,10.61
2023-03-26T03:01:48.966Z,10.60
2023-03-26T03:03:56.485Z,10.56
2023-03-26T03:06:14.185Z,10.53
2023-03-26T03:08:26.459Z,10.49
2023-03-26T03:10:39.950Z,10.45
2023-03-26T03:12:55.530Z,10.43
2023-03-26T03:15:03.638Z,10.39
2023-03-26T03:17:08.488Z,10.36
2023-03-26T03:19:13.932Z,10.34
2023-03-26T03:21:18.991Z,10.32
2023-03-26T03:23:24.328Z,10.31
2023-03-26T03:25:34.564Z,10.31
2023-03-26T03:27:39.960Z,10.34
2023-03-26T03:29:49.732Z,10.35
2023-03-26T03:32:27.938Z,10.37
2023-03-26T03:34:38.875Z,10.39
2023-03-26T03:36:48.901Z,10.40
2023-03-26T03:39:14.017Z,10.37
2023-03-26T03:41:19.382Z,10.36
2023-03-26T03:43:25.299Z,10.37
2023-03-26T03:45:41.368Z,10.37
2023-03-26T03:47:56.720Z,10.35
2023-03-26T03:50:12.048Z,10.38
2023-03-26T03:52:25.850Z,10.40
2023-03-26T03:54:31.192Z,10.41
2023-03-26T03:56:49.282Z,10.39
2023-03-26T03:59:12.924Z,10.42
2023-03-26T04:01:18.879Z,10.43
2023-03-26T04:03:39.075Z,10.44
2023-03-26T04:05:50.137Z,10.44
2023-03-26T04:07:55.616Z,10.43
2023-03-26T04:10:07.060Z,10.42
2023-03-26T04:12:38.254Z,10.39
2023-03-26T04:14:44.488Z,10.39
2023-03-26T04:16:55.254Z,10.38
2023-03-26T04:19:04.636Z,10.33
2023-03-26T04:21:12.825Z,10.31
2023-03-26T04:23:19.560Z,10.27
2023-03-26T04:25:30.564Z,10.24
2023-03-26T04:27:44.503Z,10.22
2023-03-26T04:29:58.397Z,10.19
2023-03-26T04:32:07.216Z,10.19
2023-03-26T04:34:24.489Z,10.18
2023-03-26T04:36:49.681Z,10.18
2023-03-26T04:38:58.564Z,10.19
2023-03-26T04:41:26.605Z,10.21
2023-03-26T04:43:42.617Z,10.22
2023-03-26T04:45:58.714Z,10.25
2023-03-26T04:48:07.595Z,10.28
2023-03-26T04:50:15.794Z,10.29
2023-03-26T04:52:21.585Z,10.30
2023-03-26T04:54:49.736Z,10.29
2023-03-26T04:57:01.011Z,10.30
2023-03-26T04:59:30.210Z,10.27
2023-03-26T05:01:38.100Z,10.22
2023-03-26T05:03:46.088Z,10.21
2023-03-26T05:05:55.826Z,10.22
2023-03-26T05:08:00.873Z,10.25
2023-03-26T05:10:06.598Z,10.27
2023-03-26T05:12:18.446Z,10.28
2023-03-26T05:14:36.372Z,10.29
2023-03-26T05:16:44.999Z,10.30
2023-03-26T05:18:50.049Z,10.31
2023-03-26T05:20:58.015Z,10.31
2023-03-26T05:23:04.616Z,10.35
2023-03-26T05:25:13.473Z,10.38
2023-03-26T05:27:20.375Z,10.41
2023-03-26T05:29:25.280Z,10.44
2023-03-26T05:31:33.447Z,10.46
2023-03-26T05:33:40.479Z,10.48
2023-03-26T05:35:49.644Z,10.53
2023-03-26T05:37:57.289Z,10.56
2023-03-26T05:40:04.410Z,10.60
2023-03-26T05:42:23.623Z,10.62
2023-03-26T05:44:42.741Z,10.65
2023-03-26T05:46:56.351Z,10.64
2023-03-26T05:49:04.614Z,10.67
2023-03-26T05:51:12.848Z,10.71
2023-03-26T05:53:24.828Z,10.71
2023-03-26T05:56:04.975Z,10.74
2023-03-26T05:58:34.638Z,10.77
2023-03-26T06:01:02.796Z,10.77
2023-03-26T06:03:19.193Z,10.80
2023-03-26T06:05:45.155Z,10.82
2023-03-26T06:08:16.115Z,10.86
2023-03-26T06:10:30.168Z,10.89
2023-03-26T06:12:35.129Z,10.92
2023-03-26T06:14:42.931Z,10.95
2023-03-26T06:16:56.292Z,10.99
2023-03-26T06:19:01.562Z,11.00
2023-03-26T06:21:28.394Z,11.02
2023-03-26T06:23:38.420Z,11.04
2023-03-26T06:25:50.889Z,11.03
2023-03-26T06:28:19.356Z,11.08
2023-03-26T06:30:54.329Z,11.09
2023-03-26T06:33:25.462Z,11.11
2023-03-26T06:35:31.055Z,11.14
2023-03-26T06:37:36.542Z,11.18
2023-03-26T06:39:41.881Z,11.23
2023-03-26T06:41:56.248Z,11.27
2023-03-26T06:44:15.765Z,11.31
2023-03-26T06:46:52.836Z,11.34
2023-03-26T06:49:21.116Z,11.35
2023-03-26T06:51:49.244Z,11.36
2023-03-26T06:53:57.434Z,11.39
2023-03-26T06:56:20.935Z,11.39
2023-03-26T06:58:48.957Z,11.39
2023-03-26T07:01:12.178Z,11.41
2023-03-26T07:03:36.669Z,11.42
2023-03-26T07:06:20.041Z,11.41
2023-03-26T07:08:43.716Z,11.41
2023-03-26T07:11:16.858Z,11.45
2023-03-26T07:13:41.997Z,11.49
2023-03-26T07:16:08.871Z,11.47
2023-03-26T07:18:32.545Z,11.49
2023-03-26T07:20:39.915Z,11.51
2023-03-26T07:22:45.517Z,11.54
2023-03-26T07:24:54.411Z,11.56
2023-03-26T07:27:40.866Z,11.56
2023-03-26T07:29:51.275Z,11.61
2023-03-26T07:32:28.317Z,11.63
2023-03-26T07:34:58.702Z,11.64
2023-03-26T07:37:17.759Z,11.66
2023-03-26T07:39:49.626Z,11.66
2023-03-26T07:42:26.114Z,11.68
2023-03-26T07:45:20.136Z,11.70
2023-03-26T07:48:02.362Z,11.72
2023-03-26T07:50:26.096Z,11.77
2023-03-26T07:52:46.784Z,11.81
2023-03-26T07:55:09.395Z,11.83
2023-03-26T07:57:44.535Z,11.83
2023-03-26T08:00:16.362Z,11.85
2023-03-26T08:02:38.032Z,11.88
2023-03-26T08:05:26.447Z,11.90
2023-03-26T08:08:06.023Z,11.92
2023-03-26T08:10:20.325Z,11.96
2023-03-26T08:12:45.828Z,12.00
2023-03-26T08:14:56.565Z,12.01
2023-03-26T08:17:07.794Z,11.99
2023-03-26T08:19:26.659Z,12.01
2023-03-26T08:21:41.094Z,11.99
2023-03-26T08:23:57.826Z,12.01
2023-03-26T08:26:06.597Z,12.03
2023-03-26T08:28:27.052Z,12.03
2023-03-26T08:30:33.143Z,12.05
2023-03-26T08:32:38.773Z,12.07
2023-03-26T08:34:44.058Z,12.08
2023-03-26T08:36:53.185Z,12.07
2023-03-26T08:38:59.667Z,12.10
2023-03-26T08:41:42.281Z,12.09
2023-03-26T08:44:14.324Z,12.08
2023-03-26T08:46:42.241Z,12.09
2023-03-26T08:49:27.838Z,12.09
2023-03-26T08:52:00.839Z,12.10
2023-03-26T08:54:27.604Z,12.10
2023-03-26T08:56:39.136Z,12.09
2023-03-26T08:59:14.226Z,12.10
2023-03-26T09:01:58.452Z,12.10
2023-03-26T09:04:30.562Z,12.11
2023-03-26T09:06:56.911Z,12.11
2023-03-26T09:09:43.332Z,12.12
2023-03-26T09:12:28.380Z,12.13
2023-03-26T09:15:13.981Z,12.14
2023-03-26T09:17:52.898Z,12.15
2023-03-26T09:20:29.753Z,12.16
2023-03-26T09:23:09.689Z,12.18
2023-03-26T09:25:47.256Z,12.24
2023-03-26T09:28:25.022Z,12.25
2023-03-26T09:30:42.953Z,12.24
2023-03-26T09:33:23.846Z,12.27
2023-03-26T09:35:48.612Z,12.29
2023-03-26T09:38:04.182Z,12.30
2023-03-26T09:40:19.242Z,12.29
2023-03-26T09:42:34.920Z,12.26
2023-03-26T09:45:19.273Z,12.16
2023-03-26T09:47:46.336Z,12.04
2023-03-26T09:49:56.774Z,12.00
2023-03-26T09:52:18.856Z,11.94
2023-03-26T09:54:48.676Z,11.90
2023-03-26T09:57:04.725Z,11.85
2023-03-26T09:59:20.037Z,11.78
2023-03-26T10:01:37.866Z,11.83
2023-03-26T10:03:57.224Z,11.86
2023-03-26T10:06:12.100Z,11.87
2023-03-26T10:08:44.628Z,11.86
2023-03-26T10:10:57.905Z,11.86
2023-03-26T10:13:14.843Z,11.85
2023-03-26T10:15:33.072Z,11.84
2023-03-26T10:17:56.249Z,11.83
2023-03-26T10:20:18.707Z,11.83
2023-03-26T10:22:42.411Z,11.84
2023-03-26T10:25:25.132Z,11.84
2023-03-26T10:27:46.797Z,11.81
2023-03-26T10:30:29.413Z,11.79
2023-03-26T10:32:45.975Z,11.77
2023-03-26T10:35:09.767Z,11.74
2023-03-26T10:37:23.534Z,11.72
2023-03-26T10:39:52.366Z,11.72
2023-03-26T10:42:07.215Z,11.69
2023-03-26T10:44:33.967Z,11.67
2023-03-26T10:47:11.436Z,11.67
2023-03-26T10:49:49.253Z,11.67
2023-03-26T10:52:01.221Z,11.64
2023-03-26T10:54:13.857Z,11.63
2023-03-26T10:56:25.298Z,11.66
2023-03-26T10:58:49.597Z,11.69
2023-03-26T11:01:02.934Z,11.69
2023-03-26T11:03:46.795Z,11.73
2023-03-26T11:05:59.058Z,11.80
2023-03-26T11:08:11.036Z,11.84
2023-03-26T11:10:21.522Z,11.87
2023-03-26T11:12:36.374Z,11.86
2023-03-26T11:14:49.261Z,11.83
2023-03-26T11:17:04.178Z,11.78
2023-03-26T11:19:17.776Z,11.75
2023-03-26T11:21:29.327Z,11.71
2023-03-26T11:23:42.681Z,11.70
2023-03-26T11:26:10.575Z,11.70
2023-03-26T11:28:31.411Z,11.66
2023-03-26T11:30:44.609Z,11.66
2023-03-26T11:32:55.213Z,11.64
2023-03-26T11:35:05.708Z,11.65
2023-03-26T11:37:18.337Z,11.66
2023-03-26T11:39:29.864Z,11.64
2023-03-26T11:41:35.875Z,11.66
2023-03-26T11:44:05.647Z,11.67
2023-03-26T11:46:16.925Z,11.67
2023-03-26T11:48:25.884Z,11.70
2023-03-26T11:50:35.959Z,11.69
2023-03-26T11:52:41.300Z,11.72
2023-03-26T11:54:50.938Z,11.75
2023-03-26T11:57:05.595Z,11.76
2023-03-26T11:59:15.584Z,11.77
2023-03-26T12:01:30.189Z,11.81
2023-03-26T12:03:35.078Z,11.84
2023-03-26T12:05:51.192Z,11.87
2023-03-26T12:07:58.061Z,11.89
2023-03-26T12:10:18.126Z,11.90
2023-03-26T12:12:27.644Z,11.91
2023-03-26T12:14:36.074Z,11.92
2023-03-26T12:17:00.422Z,11.93
2023-03-26T12:21:27.232Z,12.00
2023-03-26T12:23:42.027Z,12.00
2023-03-26T12:26:08.802Z,11.99
2023-03-26T12:28:23.097Z,11.97
2023-03-26T12:30:31.200Z,12.01
2023-03-26T12:32:46.816Z,12.03
2023-03-26T12:34:52.213Z,12.12
2023-03-26T12:37:00.244Z,12.25
2023-03-26T12:39:16.317Z,12.40
2023-03-26T12:43:40.482Z,12.57
2023-03-26T12:44:56.160Z,12.75
2023-03-26T12:47:57.347Z,12.92
2023-03-26T12:49:15.947Z,13.01
2023-03-26T12:51:31.818Z,13.06
2023-03-26T12:53:51.906Z,13.11
2023-03-26T12:56:04.131Z,13.17
2023-03-26T12:58:23.288Z,13.19
2023-03-26T13:00:40.176Z,13.20
2023-03-26T13:03:06.965Z,13.19
2023-03-26T13:05:27.319Z,13.22
2023-03-26T13:07:45.981Z,13.24
2023-03-26T13:10:22.564Z,13.24
2023-03-26T13:12:38.511Z,13.20
2023-03-26T13:15:13.076Z,13.19
2023-03-26T13:17:26.722Z,13.19
2023-03-26T13:19:39.410Z,13.20
2023-03-26T13:21:59.658Z,13.21
2023-03-26T13:24:15.516Z,13.19
2023-03-26T13:26:33.670Z,13.12
2023-03-26T13:28:48.525Z,13.06
2023-03-26T13:31:07.430Z,13.03
2023-03-26T13:33:30.112Z,12.87
2023-03-26T13:35:39.636Z,12.68
2023-03-26T13:37:54.620Z,12.48
2023-03-26T13:40:07.892Z,12.31
2023-03-26T13:42:37.902Z,12.12
2023-03-26T13:45:05.306Z,12.07
2023-03-26T13:47:19.033Z,12.07
2023-03-26T13:49:37.417Z,12.07
2023-03-26T13:51:48.209Z,12.05
2023-03-26T13:53:58.891Z,12.00
2023-03-26T13:56:04.004Z,11.95
2023-03-26T13:58:16.737Z,11.91
2023-03-26T14:00:27.326Z,11.89
2023-03-26T14:02:40.767Z,11.85
2023-03-26T14:04:49.263Z,11.87
2023-03-26T14:07:00.636Z,11.86
2023-03-26T14:09:12.617Z,11.86
2023-03-26T14:11:22.686Z,11.87
2023-03-26T14:13:32.782Z,11.88
2023-03-26T14:15:45.144Z,11.91
2023-03-26T14:17:58.235Z,11.90
2023-03-26T14:20:42.064Z,11.89
2023-03-26T14:23:01.455Z,11.88
2023-03-26T14:25:25.168Z,11.87
2023-03-26T14:27:44.531Z,11.88
2023-03-26T14:30:02.761Z,11.88
2023-03-26T14:32:29.916Z,11.90
2023-03-26T14:35:03.978Z,11.88
2023-03-26T14:37:28.081Z,11.84
2023-03-26T14:39:52.120Z,11.83
2023-03-26T14:42:04.115Z,11.80
2023-03-26T14:44:28.972Z,11.75
2023-03-26T14:46:50.254Z,11.67
2023-03-26T14:49:30.801Z,11.66
2023-03-26T14:52:00.859Z,11.66
2023-03-26T14:54:12.286Z,11.68
2023-03-26T14:56:45.298Z,11.67
2023-03-26T14:59:18.014Z,11.65
2023-03-26T15:01:28.555Z,11.64
2023-03-26T15:04:18.415Z,11.62
2023-03-26T15:07:18.981Z,11.53
2023-03-26T15:09:59.518Z,11.46
2023-03-26T15:12:16.341Z,11.42
2023-03-26T15:14:47.262Z,11.37
2023-03-26T15:17:40.968Z,11.35
2023-03-26T15:20:32.004Z,11.32
2023-03-26T15:23:12.990Z,11.29
2023-03-26T15:25:50.583Z,11.27
2023-03-26T15:28:34.053Z,11.24
2023-03-26T15:31:14.196Z,11.24
2023-03-26T15:33:53.137Z,11.23
2023-03-26T15:36:26.823Z,11.22
2023-03-26T15:38:57.616Z,11.18
2023-03-26T15:41:14.079Z,11.19
2023-03-26T15:43:23.030Z,11.22
2023-03-26T15:45:38.482Z,11.22
2023-03-26T15:47:57.010Z,11.23
2023-03-26T15:50:12.529Z,11.25
2023-03-26T15:52:28.046Z,11.25
2023-03-26T15:54:39.629Z,11.24
2023-03-26T15:57:10.804Z,11.21
2023-03-26T15:59:32.831Z,11.18
2023-03-26T16:01:51.878Z,11.17
2023-03-26T16:04:09.541Z,11.16
2023-03-26T16:06:34.269Z,11.12
2023-03-26T16:08:53.226Z,11.10
2023-03-26T16:10:59.704Z,11.12
2023-03-26T16:13:30.368Z,11.10
2023-03-26T16:15:38.784Z,11.11
2023-03-26T16:18:22.499Z,11.13
2023-03-26T16:20:32.924Z,11.11
2023-03-26T16:22:48.492Z,11.09
2023-03-26T16:25:27.484Z,11.09
2023-03-26T16:27:37.091Z,11.09
2023-03-26T16:30:12.354Z,11.05
2023-03-26T16:32:29.004Z,11.01
2023-03-26T16:34:53.083Z,10.99
2023-03-26T16:37:01.572Z,10.97
2023-03-26T16:39:22.757Z,10.93
2023-03-26T16:41:30.722Z,10.96
2023-03-26T16:43:58.362Z,10.97
2023-03-26T16:46:11.639Z,11.00
2023-03-26T16:48:28.273Z,11.01
2023-03-26T16:50:45.065Z,11.02
2023-03-26T16:52:58.934Z,11.02
2023-03-26T16:55:15.576Z,11.00
2023-03-26T16:57:28.987Z,10.98
2023-03-26T17:00:07.733Z,10.97
2023-03-26T17:02:24.930Z,10.96
2023-03-26T17:04:37.119Z,10.95
2023-03-26T17:07:04.297Z,10.95
2023-03-26T17:09:24.845Z,10.95
2023-03-26T17:11:40.273Z,10.95
2023-03-26T17:13:51.775Z,10.94
2023-03-26T17:16:07.110Z,10.93
2023-03-26T17:18:32.982Z,10.92
2023-03-26T17:20:46.861Z,10.94
2023-03-26T17:22:59.722Z,10.94
2023-03-26T17:25:24.160Z,10.95
2023-03-26T17:27:41.368Z,10.96
2023-03-26T17:30:04.260Z,10.99
2023-03-26T17:32:12.517Z,11.04
2023-03-26T17:34:36.918Z,11.07
2023-03-26T17:36:48.356Z,11.07
2023-03-26T17:39:05.058Z,11.08
2023-03-26T17:41:12.404Z,11.07
2023-03-26T17:43:47.902Z,11.07
2023-03-26T17:46:02.904Z,11.09
2023-03-26T17:48:18.671Z,11.08
2023-03-26T17:50:30.092Z,11.05
2023-03-26T17:52:49.261Z,11.00
2023-03-26T17:54:58.512Z,11.02
2023-03-26T17:57:08.001Z,11.02
2023-03-26T17:59:23.590Z,11.02
2023-03-26T18:01:35.193Z,11.03
2023-03-26T18:03:46.523Z,11.06
2023-03-26T18:05:55.856Z,11.07
2023-03-26T18:08:33.788Z,11.07
2023-03-26T18:11:08.074Z,11.07
2023-03-26T18:13:30.718Z,11.12
2023-03-26T18:15:52.148Z,11.14
2023-03-26T18:18:04.701Z,11.15
2023-03-26T18:20:21.396Z,11.17
2023-03-26T18:22:29.844Z,11.17
2023-03-26T18:24:42.835Z,11.16
2023-03-26T18:26:51.935Z,11.17
2023-03-26T18:29:11.922Z,11.22
2023-03-26T18:31:21.419Z,11.25
2023-03-26T18:33:28.783Z,11.26
2023-03-26T18:35:43.481Z,11.26
2023-03-26T18:37:49.757Z,11.26
2023-03-26T18:40:11.388Z,11.26
2023-03-26T18:42:25.021Z,11.23
2023-03-26T18:44:31.270Z,11.23
2023-03-26T18:46:36.853Z,11.21
2023-03-26T18:48:42.433Z,11.18
2023-03-26T18:50:48.174Z,11.16
2023-03-26T18:52:53.185Z,11.11
2023-03-26T18:54:59.907Z,11.08
2023-03-26T18:57:15.669Z,11.00
2023-03-26T18:59:28.475Z,10.97
2023-03-26T19:01:36.749Z,10.96
2023-03-26T19:03:45.246Z,10.91
2023-03-26T19:05:51.353Z,10.87
2023-03-26T19:07:56.188Z,10.81
2023-03-26T19:10:03.317Z,10.77
2023-03-26T19:12:11.535Z,10.74
2023-03-26T19:14:23.196Z,10.71
2023-03-26T19:16:34.024Z,10.67
2023-03-26T19:18:41.366Z,10.64
2023-03-26T19:20:54.134Z,10.61
2023-03-26T19:23:00.616Z,10.62
2023-03-26T19:25:06.834Z,10.60
2023-03-26T19:27:14.321Z,10.60
2023-03-26T19:29:26.909Z,10.60
2023-03-26T19:31:37.041Z,10.57
2023-03-26T19:33:44.891Z,10.55
2023-03-26T19:35:55.459Z,10.56
2023-03-26T19:38:00.612Z,10.56
2023-03-26T19:40:16.953Z,10.53
2023-03-26T19:42:26.807Z,10.54
2023-03-26T19:44:34.825Z,10.50
2023-03-26T19:46:52.968Z,10.46
2023-03-26T19:49:00.767Z,10.44
2023-03-26T19:51:09.442Z,10.43
2023-03-26T19:53:19.173Z,10.41
2023-03-26T19:55:25.549Z,10.43
2023-03-26T19:57:36.523Z,10.41
2023-03-26T19:59:43.953Z,10.42
2023-03-26T20:01:56.094Z,10.40
2023-03-26T20:04:04.260Z,10.40
2023-03-26T20:06:10.134Z,10.41
2023-03-26T20:08:17.987Z,10.42
2023-03-26T20:10:23.447Z,10.45
2023-03-26T20:12:28.525Z,10.45
2023-03-26T20:14:34.076Z,10.47
2023-03-26T20:16:43.810Z,10.45
2023-03-26T20:18:50.997Z,10.45
2023-03-26T20:20:56.683Z,10.50
2023-03-26T20:23:02.504Z,10.50
2023-03-26T20:27:23.831Z,10.55
2023-03-26T20:29:28.832Z,10.58
2023-03-26T20:31:33.997Z,10.60
2023-03-26T20:33:42.461Z,10.60
2023-03-26T20:35:48.150Z,10.62
2023-03-26T20:37:53.606Z,10.60
2023-03-26T20:39:58.632Z,10.60
2023-03-26T20:42:03.429Z,10.62
2023-03-26T20:44:15.831Z,10.59
2023-03-26T20:46:23.281Z,10.60
2023-03-26T20:48:36.452Z,10.60
2023-03-26T20:50:50.612Z,10.63
2023-03-26T20:52:56.025Z,10.62
2023-03-26T20:55:01.687Z,10.61
2023-03-26T20:57:07.005Z,10.61
2023-03-26T20:59:14.318Z,10.61
2023-03-26T21:01:20.823Z,10.61
2023-03-26T21:05:48.705Z,10.55
2023-03-26T21:07:54.899Z,10.52
2023-03-26T21:10:02.166Z,10.50
2023-03-26T21:12:09.946Z,10.45
2023-03-26T21:14:22.656Z,10.42
2023-03-26T21:16:28.456Z,10.37
2023-03-26T21:18:34.322Z,10.34
2023-03-26T21:20:40.345Z,10.35
2023-03-26T21:22:56.547Z,10.34
2023-03-26T21:25:23.454Z,10.32
2023-03-26T21:27:36.271Z,10.35
2023-03-26T21:29:41.993Z,10.34
2023-03-26T21:31:47.547Z,10.31
2023-03-26T21:33:55.402Z,10.28
2023-03-26T21:36:04.635Z,10.27
2023-03-26T21:38:14.392Z,10.25
2023-03-26T21:40:21.218Z,10.25
2023-03-26T21:42:29.482Z,10.22
2023-03-26T21:44:35.231Z,10.19
2023-03-26T21:46:43.629Z,10.16
2023-03-26T21:48:49.285Z,10.16
2023-03-26T21:50:54.889Z,10.16
2023-03-26T21:53:00.824Z,10.12
2023-03-26T21:55:09.823Z,10.11
2023-03-26T21:57:36.191Z,10.10
2023-03-26T21:59:51.946Z,10.09
2023-03-26T22:02:06.272Z,10.08
2023-03-26T22:04:20.311Z,10.07
2023-03-26T22:06:31.623Z,10.09
2023-03-26T22:08:41.600Z,10.12
2023-03-26T22:10:49.430Z,10.17
2023-03-26T22:12:54.693Z,10.20
2023-03-26T22:15:01.880Z,10.23
2023-03-26T22:17:06.733Z,10.26
2023-03-26T22:19:12.840Z,10.27
2023-03-26T22:21:17.752Z,10.29
2023-03-26T22:23:23.088Z,10.29
2023-03-26T22:25:28.167Z,10.31
2023-03-26T22:27:43.826Z,10.31
2023-03-26T22:29:49.759Z,10.33
2023-03-26T22:31:54.624Z,10.31
2023-03-26T22:33:59.521Z,10.28
2023-03-26T22:36:04.828Z,10.25
2023-03-26T22:38:28.075Z,10.20
2023-03-26T22:40:33.214Z,10.20
2023-03-26T22:42:40.712Z,10.19
2023-03-26T22:44:45.986Z,10.20
2023-03-26T22:46:52.640Z,10.21
2023-03-26T22:48:57.949Z,10.23
2023-03-26T22:51:05.247Z,10.27
2023-03-26T22:53:10.550Z,10.30
2023-03-26T22:55:16.154Z,10.33
2023-03-26T22:57:33.981Z,10.31
2023-03-26T22:59:41.881Z,10.26
2023-03-26T23:01:47.209Z,10.26
2023-03-26T23:03:52.344Z,10.26
2023-03-26T23:05:58.920Z,10.27
2023-03-26T23:08:03.874Z,10.28
2023-03-26T23:10:11.335Z,10.31
2023-03-26T23:12:16.157Z,10.31
2023-03-26T23:14:21.996Z,10.33
2023-03-26T23:16:30.058Z,10.33
2023-03-26T23:18:35.054Z,10.32
2023-03-26T23:20:40.199Z,10.31
2023-03-26T23:22:46.021Z,10.32
2023-03-26T23:24:51.611Z,10.32
2023-03-26T23:26:56.747Z,10.30
2023-03-26T23:29:01.894Z,10.28
2023-03-26T23:31:09.612Z,10.28
2023-03-26T23:33:17.210Z,10.28
2023-03-26T23:35:22.297Z,10.27
2023-03-26T23:37:29.685Z,10.27
2023-03-26T23:39:34.895Z,10.26
2023-03-26T23:41:41.201Z,10.26
2023-03-26T23:43:53.954Z,10.22
2023-03-26T23:46:01.490Z,10.22
2023-03-26T23:48:07.214Z,10.23
2023-03-26T23:50:15.350Z,10.23
2023-03-26T23:52:20.277Z,10.23
2023-03-26T23:54:25.797Z,10.24
2023-03-26T23:56:32.138Z,10.23
2023-03-26T23:58:37.748Z,10.23
